Terminal Aerodrome Forecast
Issued by NWS

Home | Current Version | Previous Version | Text Only | Print | Product List | Glossary On
Versions: 1 2 3 4 5 6 7 8 9 10 11 12 13 14 15 16 17 18 19 20 21 22 23
663
FTAK31 PAJN 282005 AAA
TAFAYA
TAF AMD
PAYA 282005Z 2820/2918 09010G15KT 6SM -RA BR FEW010 BKN030 OVC035
     FM290200 12009KT P6SM -SHRA SCT020 OVC030
     FM290600 12006KT P6SM -SHRA SCT020 OVC040
     FM291000 12006KT 6SM -RA SCT020 OVC030=

USA.gov is the U.S. government's official web portal to all federal, state and local government web resources and services.